createdAt,value
2019-05-21T00:04:10.295Z,16.98
2019-05-21T00:12:31.796Z,16.66
2019-05-21T00:20:52.898Z,16.73
2019-05-21T00:29:14.036Z,16.71
2019-05-21T00:37:35.191Z,16.76
2019-05-21T00:45:56.634Z,16.68
2019-05-21T00:54:17.912Z,16.76
2019-05-21T01:02:39.132Z,16.62
2019-05-21T01:11:00.257Z,16.57
2019-05-21T01:19:21.386Z,16.29
2019-05-21T01:27:42.549Z,16.29
2019-05-21T01:36:03.653Z,16.47
2019-05-21T01:44:24.769Z,16.63
2019-05-21T01:52:45.906Z,16.37
2019-05-21T02:01:07.400Z,16.50
2019-05-21T02:09:28.537Z,16.53
2019-05-21T02:17:49.792Z,16.59
2019-05-21T02:26:11.241Z,16.63
2019-05-21T02:34:32.352Z,16.80
2019-05-21T02:42:53.489Z,16.56
2019-05-21T02:51:15.703Z,16.59
2019-05-21T02:59:36.843Z,16.58
2019-05-21T03:07:57.979Z,16.25
2019-05-21T03:16:19.111Z,16.42
2019-05-21T03:24:40.370Z,16.15
2019-05-21T03:33:01.549Z,16.41
2019-05-21T03:41:22.717Z,16.40
2019-05-21T03:49:43.869Z,16.38
2019-05-21T03:58:05.072Z,16.44
2019-05-21T04:06:28.869Z,16.77
2019-05-21T04:14:49.008Z,16.80
2019-05-21T04:23:10.107Z,16.73
2019-05-21T04:31:31.232Z,16.77
2019-05-21T04:39:52.363Z,16.79
2019-05-21T04:48:13.848Z,16.56
2019-05-21T04:56:35.052Z,16.29
2019-05-21T05:04:56.475Z,16.38
2019-05-21T05:13:17.601Z,16.44
2019-05-21T05:21:38.727Z,16.53
2019-05-21T05:30:00.886Z,16.52
2019-05-21T05:38:23.056Z,16.53
2019-05-21T05:46:44.285Z,16.61
2019-05-21T05:55:05.410Z,16.83
2019-05-21T06:03:26.933Z,16.95
2019-05-21T06:11:48.374Z,17.16
2019-05-21T06:20:09.552Z,16.95
2019-05-21T06:28:30.813Z,16.84
2019-05-21T06:36:52.064Z,16.75
2019-05-21T06:45:13.506Z,16.42
2019-05-21T06:53:34.661Z,16.85
2019-05-21T07:01:55.864Z,17.03
2019-05-21T07:10:16.970Z,17.05
2019-05-21T07:18:41.400Z,17.18
2019-05-21T07:27:02.393Z,17.26
2019-05-21T07:35:23.661Z,17.40
2019-05-21T07:43:44.803Z,17.54
2019-05-21T07:52:06.055Z,17.07
2019-05-21T08:00:27.206Z,17.30
2019-05-21T08:08:48.343Z,17.22
2019-05-21T08:17:09.732Z,17.19
2019-05-21T08:25:30.987Z,17.22
2019-05-21T08:33:52.109Z,17.26
2019-05-21T08:42:13.341Z,17.32
2019-05-21T08:50:35.488Z,17.15
2019-05-21T08:58:56.970Z,17.30
2019-05-21T09:07:18.558Z,17.07
2019-05-21T09:15:39.993Z,16.95
2019-05-21T09:24:01.474Z,16.98
2019-05-21T09:32:22.915Z,16.84
2019-05-21T09:40:44.369Z,16.88
2019-05-21T09:49:05.818Z,16.78
2019-05-21T09:57:27.267Z,16.85
2019-05-21T10:05:49.393Z,16.78
2019-05-21T10:14:16.610Z,16.59
2019-05-21T10:22:38.055Z,16.57
2019-05-21T10:31:00.110Z,16.53
2019-05-21T10:39:21.229Z,16.35
2019-05-21T10:47:42.374Z,16.42
2019-05-21T10:56:03.981Z,16.42
2019-05-21T11:04:25.452Z,16.54
2019-05-21T11:12:46.589Z,16.88
2019-05-21T11:21:08.038Z,16.95
2019-05-21T11:29:29.310Z,16.96
2019-05-21T11:37:50.513Z,17.18
2019-05-21T11:46:12.016Z,17.06
2019-05-21T11:54:33.161Z,17.07
2019-05-21T12:02:54.595Z,16.87
2019-05-21T12:11:15.846Z,16.97
2019-05-21T12:19:37.449Z,16.88
2019-05-21T12:27:58.673Z,17.10
2019-05-21T12:36:19.848Z,17.15
2019-05-21T12:44:42.076Z,17.16
2019-05-21T12:53:03.283Z,17.41
2019-05-21T13:01:24.571Z,17.28
2019-05-21T13:09:45.778Z,17.58
2019-05-21T13:18:07.320Z,17.77
2019-05-21T13:26:28.823Z,17.68
2019-05-21T13:34:50.070Z,17.57
2019-05-21T13:43:11.506Z,17.32
2019-05-21T13:51:33.022Z,17.46
2019-05-21T13:59:54.477Z,17.49
2019-05-21T14:08:16.042Z,17.43
2019-05-21T14:16:37.637Z,17.39
2019-05-21T14:24:59.039Z,17.60
2019-05-21T14:33:20.200Z,17.63
2019-05-21T14:41:41.623Z,17.66
2019-05-21T14:50:03.076Z,17.58
2019-05-21T14:58:24.215Z,17.62
2019-05-21T15:06:45.708Z,17.36
2019-05-21T15:15:07.259Z,17.39
2019-05-21T15:23:28.513Z,17.51
2019-05-21T15:31:50.986Z,17.42
2019-05-21T15:40:12.237Z,17.14
2019-05-21T15:48:33.699Z,17.20
2019-05-21T15:56:54.908Z,17.15
2019-05-21T16:05:16.397Z,17.23
2019-05-21T16:13:37.551Z,17.21
2019-05-21T16:21:58.733Z,17.14
2019-05-21T16:30:20.224Z,16.94
2019-05-21T16:38:41.367Z,17.15
2019-05-21T16:47:02.501Z,17.14
2019-05-21T16:55:23.974Z,17.16
2019-05-21T17:03:59.023Z,17.13
2019-05-21T17:12:08.191Z,17.06
2019-05-21T17:20:33.901Z,16.97
2019-05-21T17:28:56.353Z,16.91
2019-05-21T17:37:17.703Z,16.83
2019-05-21T17:45:38.918Z,16.76
2019-05-21T17:54:00.356Z,16.71
2019-05-21T18:02:21.729Z,16.58
2019-05-21T18:10:43.022Z,16.46
2019-05-21T18:19:08.297Z,16.59
2019-05-21T18:27:27.329Z,16.65
2019-05-21T18:35:48.820Z,16.63
2019-05-21T18:44:10.266Z,16.59
2019-05-21T18:52:31.389Z,16.43
2019-05-21T19:00:52.514Z,16.33
2019-05-21T19:09:13.629Z,16.41
2019-05-21T19:17:35.977Z,16.43
2019-05-21T19:25:57.314Z,16.44
2019-05-21T19:34:18.806Z,16.50
2019-05-21T19:42:53.880Z,16.57
2019-05-21T19:51:03.134Z,16.60
2019-05-21T19:59:24.615Z,16.39
2019-05-21T20:07:46.036Z,16.23
2019-05-21T20:16:07.565Z,16.06
2019-05-21T20:24:28.666Z,16.10
2019-05-21T20:32:50.802Z,16.06
2019-05-21T20:41:12.453Z,16.14
2019-05-21T20:49:33.749Z,15.99
2019-05-21T20:57:55.211Z,15.90
2019-05-21T21:06:16.367Z,15.79
2019-05-21T21:14:37.476Z,15.80
2019-05-21T21:22:58.745Z,15.81
2019-05-21T21:31:20.205Z,15.97
2019-05-21T21:39:41.438Z,16.08
2019-05-21T21:48:02.922Z,15.95
2019-05-21T21:56:24.382Z,15.95
2019-05-21T22:04:45.535Z,15.91
2019-05-21T22:13:07.547Z,15.83
2019-05-21T22:21:28.824Z,15.75
2019-05-21T22:29:50.297Z,15.62
2019-05-21T22:38:11.843Z,15.53
2019-05-21T22:46:33.110Z,15.57
2019-05-21T22:54:54.244Z,15.45
2019-05-21T23:03:15.561Z,15.53
2019-05-21T23:11:36.706Z,15.58
2019-05-21T23:19:58.235Z,15.48
2019-05-21T23:28:20.365Z,15.43
2019-05-21T23:36:41.476Z,15.61
2019-05-21T23:45:02.627Z,15.41
2019-05-21T23:53:23.909Z,15.62
